Terminal Aerodrome Forecast
Issued by NWS

Home | Current Version | Previous Version | Text Only | Print | Product List | Glossary On
Versions: 1 2 3 4 5 6 7 8 9 10 11 12
000
FTUS41 KCAR 261728
TAFBHB
TAF
KBHB 261728Z 2618/2718 05008KT P6SM -RA OVC008
     FM262100 04009KT P6SM OVC003
     FM262200 04009KT 1 1/2SM BR OVC003
     FM270000 02009KT P6SM OVC003=

USA.gov is the U.S. government's official web portal to all federal, state and local government web resources and services.